Time;durP1;ratioP1;P1;durP2;ratioP2;P2;SDS_P1;SDS_P2;PMS_P1;PMS_P2;Temp;Humidity;BMP_temperature;BMP_pressure;BME280_temperature;BME280_humidity;BME280_pressure;Samples;Min_cycle;Max_cycle;Signal;HPM_P1;HPM_P2
2022/07/12 00:01:53;;;;;;;1.00;1.00;;;13.80;99.90;;;;;;7357357;19;20313;-79
2022/07/12 00:04:19;;;;;;;1.30;1.20;;;13.80;99.90;;;;;;7380941;19;20837;-79
2022/07/12 00:06:44;;;;;;;1.30;1.20;;;13.70;99.90;;;;;;7380446;19;20350;-79
2022/07/12 00:09:10;;;;;;;1.10;1.10;;;13.70;99.90;;;;;;7379287;19;20376;-81
2022/07/12 00:11:36;;;;;;;1.20;1.10;;;13.60;99.90;;;;;;7380090;19;20919;-78
2022/07/12 00:14:02;;;;;;;1.20;1.20;;;13.50;99.90;;;;;;7379860;19;20343;-79
2022/07/12 00:16:27;;;;;;;1.40;1.30;;;13.50;99.90;;;;;;7381960;19;20380;-78
2022/07/12 00:18:53;;;;;;;1.07;1.07;;;13.50;99.90;;;;;;7380606;19;20337;-81
2022/07/12 00:21:19;;;;;;;2.17;1.07;;;13.50;99.90;;;;;;7380839;19;20891;-79
2022/07/12 00:23:45;;;;;;;1.27;1.10;;;13.50;99.90;;;;;;7381347;19;20343;-81
2022/07/12 00:26:10;;;;;;;1.87;1.30;;;13.50;99.90;;;;;;7382652;19;20349;-79
2022/07/12 00:28:36;;;;;;;1.25;1.20;;;13.50;99.90;;;;;;7379742;19;20331;-80
2022/07/12 00:31:03;;;;;;;1.13;1.10;;;13.50;99.90;;;;;;7380208;19;20351;-78
2022/07/12 00:33:28;;;;;;;1.35;1.25;;;13.40;99.90;;;;;;7383072;19;20327;-79
2022/07/12 00:35:54;;;;;;;1.40;1.30;;;13.40;99.90;;;;;;7387091;19;20387;-78
2022/07/12 00:38:20;;;;;;;1.40;1.30;;;13.30;99.90;;;;;;7387871;19;20314;-79
2022/07/12 00:40:45;;;;;;;1.10;1.10;;;13.20;99.90;;;;;;7387628;19;20340;-78
2022/07/12 00:43:11;;;;;;;1.30;1.20;;;13.10;99.90;;;;;;7386206;19;20325;-82
2022/07/12 00:45:37;;;;;;;1.25;1.23;;;13.20;99.90;;;;;;7387550;19;20364;-79
2022/07/12 00:48:02;;;;;;;1.27;1.20;;;13.20;99.90;;;;;;7387399;19;20357;-79
2022/07/12 00:50:28;;;;;;;1.27;1.17;;;13.20;99.90;;;;;;7389293;19;20344;-79
2022/07/12 00:52:54;;;;;;;0.90;0.90;;;13.30;99.90;;;;;;7388758;19;20359;-79
2022/07/12 00:55:20;;;;;;;1.40;1.30;;;13.20;99.90;;;;;;7389234;19;20447;-79
2022/07/12 00:57:47;;;;;;;1.50;1.40;;;13.20;99.90;;;;;;7386010;19;20333;-78
2022/07/12 01:00:14;;;;;;;1.35;1.25;;;13.10;99.90;;;;;;7385607;19;20358;-78
2022/07/12 01:02:40;;;;;;;1.20;1.10;;;13.10;99.90;;;;;;7387309;19;20392;-78
2022/07/12 01:05:07;;;;;;;1.20;1.10;;;13.10;99.90;;;;;;7386589;19;20362;-78
2022/07/12 01:07:32;;;;;;;1.30;1.20;;;13.10;99.90;;;;;;7386083;19;20334;-80
2022/07/12 01:09:58;;;;;;;2.10;1.00;;;13.00;99.90;;;;;;7387621;19;20340;-79
2022/07/12 01:12:24;;;;;;;1.08;1.08;;;13.10;99.90;;;;;;7387811;19;20729;-78
2022/07/12 01:14:49;;;;;;;1.15;1.15;;;13.00;99.90;;;;;;7386358;19;20325;-78
2022/07/12 01:17:25;;;;;;;1.23;1.17;;;13.00;99.90;;;;;;7386369;19;20328;-79
2022/07/12 01:19:53;;;;;;;1.00;1.00;;;13.00;99.90;;;;;;7386654;19;21075;-79
2022/07/12 01:22:18;;;;;;;1.02;1.00;;;13.00;99.90;;;;;;7387051;19;20320;-78
2022/07/12 01:24:45;;;;;;;1.95;1.20;;;13.00;99.90;;;;;;7388098;19;20313;-78
2022/07/12 01:27:11;;;;;;;1.20;1.10;;;13.00;99.90;;;;;;7383206;19;20345;-78
2022/07/12 01:29:36;;;;;;;1.02;1.02;;;13.00;99.90;;;;;;7385456;19;20428;-79
2022/07/12 01:32:26;;;;;;;1.20;1.10;;;13.00;99.90;;;;;;7384387;19;20301;-80
2022/07/12 01:34:59;;;;;;;1.50;1.40;;;12.90;99.90;;;;;;7381744;19;20367;-79
2022/07/12 01:37:37;;;;;;;1.50;1.40;;;12.90;99.90;;;;;;7384146;19;20355;-79
2022/07/12 01:40:10;;;;;;;1.63;1.52;;;12.90;99.90;;;;;;7280257;19;2019545;-79
2022/07/12 01:42:36;;;;;;;2.70;2.08;;;12.80;99.90;;;;;;7384129;19;20316;-79
2022/07/12 01:45:02;;;;;;;4.78;2.60;;;12.90;99.90;;;;;;7379237;19;20899;-79
2022/07/12 01:47:29;;;;;;;5.78;4.07;;;12.80;99.90;;;;;;7381725;19;20447;-79
2022/07/12 01:49:54;;;;;;;6.50;5.05;;;12.80;99.90;;;;;;7382979;19;20344;-79
2022/07/12 01:52:20;;;;;;;9.03;6.13;;;12.70;99.90;;;;;;7383371;19;20400;-79
2022/07/12 01:54:46;;;;;;;11.10;6.00;;;12.70;99.90;;;;;;7381791;19;20364;-79
2022/07/12 01:57:11;;;;;;;7.63;5.37;;;12.50;99.90;;;;;;7381678;19;20359;-79
2022/07/12 01:59:37;;;;;;;8.15;5.53;;;12.60;99.90;;;;;;7384372;19;20395;-79
2022/07/12 02:02:03;;;;;;;6.72;5.00;;;12.40;99.90;;;;;;7380612;19;20316;-79
2022/07/12 02:04:29;;;;;;;9.77;6.05;;;12.40;99.90;;;;;;7382732;19;20312;-79
2022/07/12 02:06:55;;;;;;;8.03;5.33;;;12.30;99.90;;;;;;7380718;19;20339;-79
2022/07/12 02:09:20;;;;;;;8.23;5.60;;;12.30;99.90;;;;;;7381889;19;20313;-78
2022/07/12 02:11:47;;;;;;;7.45;5.30;;;12.30;99.90;;;;;;7381538;19;20949;-79
2022/07/12 02:14:12;;;;;;;7.72;4.80;;;12.40;99.90;;;;;;7383504;19;20328;-78
2022/07/12 02:16:39;;;;;;;5.05;3.70;;;12.30;99.90;;;;;;7380141;19;20807;-81
2022/07/12 02:19:04;;;;;;;4.68;4.05;;;12.40;99.90;;;;;;7381925;19;20341;-80
2022/07/12 02:21:30;;;;;;;4.93;4.23;;;12.30;99.90;;;;;;7380596;19;20337;-78
2022/07/12 02:23:55;;;;;;;7.07;4.77;;;12.40;99.90;;;;;;7383444;19;20300;-80
2022/07/12 02:26:21;;;;;;;4.82;3.92;;;12.30;99.90;;;;;;7380816;19;20877;-78
2022/07/12 02:28:47;;;;;;;8.03;4.80;;;12.30;99.90;;;;;;7381955;19;20691;-79
2022/07/12 02:31:12;;;;;;;6.13;4.13;;;12.30;99.90;;;;;;7381380;19;20384;-79
2022/07/12 02:33:38;;;;;;;4.93;4.10;;;12.30;99.90;;;;;;7380441;19;20330;-80
2022/07/12 02:36:03;;;;;;;5.43;4.00;;;12.30;99.90;;;;;;7379618;19;20662;-78
2022/07/12 02:38:29;;;;;;;6.18;3.92;;;12.30;99.90;;;;;;7381029;19;20313;-79
2022/07/12 02:40:55;;;;;;;7.13;4.10;;;12.30;99.90;;;;;;7380609;19;20356;-79
2022/07/12 02:43:24;;;;;;;4.53;3.55;;;12.30;99.90;;;;;;7381587;19;20335;-79
2022/07/12 02:45:50;;;;;;;6.28;4.38;;;12.30;99.90;;;;;;7380789;19;20321;-80
2022/07/12 02:48:16;;;;;;;5.85;4.03;;;12.30;99.90;;;;;;7380508;19;20412;-78
2022/07/12 02:50:42;;;;;;;5.95;4.47;;;12.30;99.90;;;;;;7380813;19;20412;-78
2022/07/12 02:53:08;;;;;;;5.10;4.30;;;12.30;99.90;;;;;;7383337;19;20348;-78
2022/07/12 02:55:34;;;;;;;4.40;3.97;;;12.30;99.90;;;;;;7380810;19;20333;-79
2022/07/12 02:58:00;;;;;;;4.53;4.07;;;12.40;99.90;;;;;;7382084;19;20864;-78
2022/07/12 03:00:26;;;;;;;5.75;4.57;;;12.30;99.90;;;;;;7381038;19;20387;-78
2022/07/12 03:02:51;;;;;;;5.00;3.33;;;12.30;99.90;;;;;;7380965;19;20713;-79
2022/07/12 03:05:17;;;;;;;5.50;4.72;;;12.30;99.90;;;;;;7380162;19;20391;-79
2022/07/12 03:07:43;;;;;;;4.80;3.90;;;12.30;99.90;;;;;;7380648;19;20650;-78
2022/07/12 03:10:08;;;;;;;6.22;4.57;;;12.30;99.90;;;;;;7379960;19;20343;-78
2022/07/12 03:12:34;;;;;;;4.60;4.07;;;12.20;99.90;;;;;;7379785;19;20328;-78
2022/07/12 03:15:00;;;;;;;6.10;4.55;;;12.20;99.90;;;;;;7380228;19;20305;-78
2022/07/12 03:17:25;;;;;;;5.90;5.13;;;12.10;99.90;;;;;;7375835;19;21644;-78
2022/07/12 03:19:51;;;;;;;11.15;5.22;;;12.20;99.90;;;;;;7378470;19;20343;-79
2022/07/12 03:22:17;;;;;;;8.95;5.10;;;12.10;99.90;;;;;;7380567;19;20309;-78
2022/07/12 03:24:42;;;;;;;4.77;3.80;;;12.10;99.90;;;;;;7379181;19;20869;-79
2022/07/12 03:27:09;;;;;;;7.20;5.20;;;12.10;99.90;;;;;;7375530;19;20373;-78
2022/07/12 03:29:34;;;;;;;7.20;5.60;;;12.10;99.90;;;;;;7376879;19;20336;-78
2022/07/12 03:32:00;;;;;;;6.38;4.55;;;12.10;99.90;;;;;;7376570;19;20313;-79
2022/07/12 03:34:25;;;;;;;5.50;4.70;;;12.10;99.90;;;;;;7378792;19;20357;-80
2022/07/12 03:36:51;;;;;;;6.60;4.53;;;12.00;99.90;;;;;;7376266;19;20331;-78
2022/07/12 03:39:17;;;;;;;5.67;4.40;;;12.00;99.90;;;;;;7371959;19;20365;-80
2022/07/12 03:41:42;;;;;;;5.85;4.55;;;12.00;99.90;;;;;;7365432;19;20317;-78
2022/07/12 03:44:08;;;;;;;6.43;4.53;;;12.00;99.90;;;;;;7377269;19;20317;-78
2022/07/12 03:46:33;;;;;;;5.63;4.23;;;12.00;99.90;;;;;;7376313;19;20321;-79
2022/07/12 03:48:59;;;;;;;5.60;5.00;;;12.00;99.90;;;;;;7375543;19;20308;-78
2022/07/12 03:51:25;;;;;;;6.87;5.00;;;12.10;99.90;;;;;;7376893;19;20337;-78
2022/07/12 03:53:51;;;;;;;6.88;4.65;;;12.10;99.90;;;;;;7377743;19;20669;-78
2022/07/12 03:59:01;;;;;;;6.88;5.07;;;12.10;99.90;;;;;;7375636;19;20297;-79
2022/07/12 04:01:26;;;;;;;5.37;4.53;;;12.20;99.90;;;;;;7377103;19;20388;-79
2022/07/12 04:03:52;;;;;;;5.93;4.18;;;12.20;99.90;;;;;;7378817;19;20871;-81
2022/07/12 04:06:18;;;;;;;4.63;3.80;;;12.20;99.90;;;;;;7380592;19;21058;-80
2022/07/12 04:08:43;;;;;;;5.57;4.40;;;12.30;99.90;;;;;;7378599;19;20317;-79
2022/07/12 04:11:09;;;;;;;7.00;4.90;;;12.40;99.90;;;;;;7386079;19;20435;-78
2022/07/12 04:13:34;;;;;;;6.50;4.40;;;12.50;99.90;;;;;;7388945;19;20296;-79
2022/07/12 04:16:00;;;;;;;5.73;4.70;;;12.60;99.90;;;;;;7386979;19;20297;-79
2022/07/12 04:18:25;;;;;;;5.70;4.80;;;12.70;99.90;;;;;;7387541;19;20654;-80
2022/07/12 04:20:51;;;;;;;8.52;5.80;;;12.70;99.90;;;;;;7386081;19;20313;-79
2022/07/12 04:23:17;;;;;;;6.17;5.53;;;12.70;99.90;;;;;;7388175;19;20899;-79
2022/07/12 04:25:42;;;;;;;11.35;6.25;;;12.70;99.90;;;;;;7385966;19;20424;-79
2022/07/12 04:28:08;;;;;;;6.83;5.70;;;12.60;99.90;;;;;;7386176;19;20867;-79
2022/07/12 04:30:33;;;;;;;7.20;5.23;;;12.70;99.90;;;;;;7385281;19;20337;-80
2022/07/12 04:32:59;;;;;;;8.25;5.47;;;12.80;99.90;;;;;;7387400;19;20324;-78
2022/07/12 04:35:24;;;;;;;9.63;5.73;;;12.90;99.90;;;;;;7386312;19;20304;-80
2022/07/12 04:37:50;;;;;;;10.77;6.72;;;13.00;99.90;;;;;;7385213;19;20354;-79
2022/07/12 04:40:16;;;;;;;9.07;5.13;;;13.10;99.90;;;;;;7385993;19;20322;-78
2022/07/12 04:42:41;;;;;;;8.53;6.50;;;13.20;99.90;;;;;;7385243;19;20786;-78
2022/07/12 04:45:07;;;;;;;7.20;5.13;;;13.30;99.90;;;;;;7382485;19;20305;-79
2022/07/12 04:47:36;;;;;;;8.73;6.03;;;13.40;99.90;;;;;;7375002;19;20441;-80
2022/07/12 04:50:06;;;;;;;8.82;6.15;;;13.50;99.90;;;;;;7377822;19;20340;-80
2022/07/12 04:52:31;;;;;;;10.90;6.40;;;13.60;99.90;;;;;;7385726;19;20316;-80
2022/07/12 04:54:57;;;;;;;8.63;6.30;;;13.70;99.90;;;;;;7385705;19;20931;-82
2022/07/12 04:57:23;;;;;;;6.45;5.47;;;13.80;99.90;;;;;;7385216;19;20312;-81
2022/07/12 04:59:48;;;;;;;8.23;5.47;;;13.90;99.90;;;;;;7384948;19;20365;-81
2022/07/12 05:02:14;;;;;;;8.37;6.43;;;14.10;99.90;;;;;;7385542;19;20325;-82
2022/07/12 05:04:39;;;;;;;10.25;6.22;;;14.30;99.90;;;;;;7382222;19;20344;-85
2022/07/12 05:07:05;;;;;;;8.87;6.30;;;14.40;99.90;;;;;;7383473;19;20308;-82
2022/07/12 05:09:30;;;;;;;10.03;6.27;;;14.60;99.90;;;;;;7383910;19;20330;-82
2022/07/12 05:11:56;;;;;;;12.10;6.97;;;14.80;99.90;;;;;;7382644;19;20300;-82
2022/07/12 05:14:22;;;;;;;8.23;6.30;;;14.90;99.90;;;;;;7385665;19;20373;-82
2022/07/12 05:16:47;;;;;;;9.48;5.90;;;14.90;99.90;;;;;;7385037;19;20316;-82
2022/07/12 05:19:15;;;;;;;10.20;6.60;;;15.10;99.90;;;;;;7382970;19;20313;-82
2022/07/12 05:21:41;;;;;;;9.52;6.40;;;15.20;99.90;;;;;;7386984;19;20313;-83
2022/07/12 05:24:07;;;;;;;13.52;6.50;;;15.40;99.90;;;;;;7389680;19;20354;-82
2022/07/12 05:26:33;;;;;;;7.47;4.90;;;15.50;99.90;;;;;;7390061;19;20320;-81
2022/07/12 05:28:58;;;;;;;9.38;6.40;;;15.70;99.90;;;;;;7391695;19;20324;-82
2022/07/12 05:31:24;;;;;;;7.97;4.97;;;15.90;99.90;;;;;;7390450;19;21341;-82
2022/07/12 05:33:49;;;;;;;5.85;4.70;;;16.10;99.90;;;;;;7392094;19;20341;-84
2022/07/12 05:36:15;;;;;;;7.63;5.13;;;16.30;99.90;;;;;;7387938;19;20341;-82
2022/07/12 05:38:41;;;;;;;6.67;4.17;;;16.40;99.90;;;;;;7387892;19;20648;-82
2022/07/12 05:41:06;;;;;;;6.40;4.25;;;16.70;99.90;;;;;;7386728;19;20305;-85
2022/07/12 05:43:32;;;;;;;7.17;3.87;;;16.90;99.90;;;;;;7389809;19;20313;-82
2022/07/12 05:45:57;;;;;;;5.93;4.37;;;17.00;99.90;;;;;;7388629;19;20688;-83
2022/07/12 05:48:23;;;;;;;5.85;3.78;;;17.10;99.90;;;;;;7386191;19;20366;-82
2022/07/12 05:50:49;;;;;;;4.37;3.43;;;17.30;99.90;;;;;;7386024;19;20412;-86
2022/07/12 05:53:23;;;;;;;3.17;2.47;;;17.40;99.90;;;;;;7386616;19;20898;-82
2022/07/12 05:55:50;;;;;;;4.45;2.88;;;17.70;99.90;;;;;;7386616;19;20391;-88
2022/07/12 05:58:16;;;;;;;3.63;2.50;;;17.90;99.90;;;;;;7387081;19;20380;-82
2022/07/12 06:00:41;;;;;;;3.17;2.47;;;18.10;99.90;;;;;;7387676;19;20312;-84
2022/07/12 06:03:07;;;;;;;3.30;2.60;;;18.20;99.90;;;;;;7390264;19;20359;-81
2022/07/12 06:05:32;;;;;;;3.13;2.30;;;18.40;99.90;;;;;;7387313;19;20323;-83
2022/07/12 06:07:58;;;;;;;3.25;2.30;;;18.50;99.90;;;;;;7385926;19;20321;-82
2022/07/12 06:10:24;;;;;;;3.30;2.00;;;18.60;99.90;;;;;;7387589;19;20321;-87
2022/07/12 06:12:49;;;;;;;3.43;2.07;;;18.70;99.90;;;;;;7388486;19;20394;-82
2022/07/12 06:15:15;;;;;;;3.45;2.00;;;18.80;99.90;;;;;;7388975;19;20360;-82
2022/07/12 06:17:40;;;;;;;3.07;1.77;;;19.00;99.90;;;;;;7389406;19;20324;-82
2022/07/12 06:20:06;;;;;;;1.70;1.60;;;19.20;99.90;;;;;;7386535;19;20333;-84
2022/07/12 06:22:32;;;;;;;1.70;1.60;;;19.30;99.90;;;;;;7393292;19;20341;-84
2022/07/12 06:24:58;;;;;;;1.90;1.60;;;19.40;99.90;;;;;;7388056;19;20304;-82
2022/07/12 06:27:23;;;;;;;1.27;1.20;;;19.60;99.90;;;;;;7389589;19;20380;-82
2022/07/12 06:29:49;;;;;;;1.50;1.40;;;19.70;99.90;;;;;;7389067;19;20333;-86
2022/07/12 06:32:15;;;;;;;1.30;1.30;;;19.90;99.90;;;;;;7386061;19;20323;-87
2022/07/12 06:34:41;;;;;;;3.45;1.30;;;20.10;99.90;;;;;;7268199;19;20274;-83
2022/07/12 06:37:08;;;;;;;1.95;1.50;;;20.30;99.90;;;;;;7379033;19;20400;-83
2022/07/12 06:39:35;;;;;;;6.72;5.07;;;20.30;99.90;;;;;;7336423;19;20316;-82
2022/07/12 06:42:03;;;;;;;15.32;8.95;;;20.40;99.90;;;;;;7388215;19;20322;-85
2022/07/12 06:44:30;;;;;;;17.67;10.38;;;20.50;99.90;;;;;;7390229;19;20369;-86
2022/07/12 06:46:56;;;;;;;20.33;11.83;;;20.50;99.90;;;;;;7388405;19;20374;-84
2022/07/12 06:49:22;;;;;;;19.55;11.68;;;20.50;99.90;;;;;;7389319;19;20337;-82
2022/07/12 06:51:47;;;;;;;20.87;12.97;;;20.60;99.90;;;;;;7390808;19;20838;-82
2022/07/12 06:54:13;;;;;;;15.93;10.02;;;20.70;99.90;;;;;;7388352;19;20320;-84
2022/07/12 06:56:38;;;;;;;13.05;7.28;;;20.80;99.90;;;;;;7390278;19;20379;-84
2022/07/12 06:59:04;;;;;;;8.00;5.97;;;21.10;99.90;;;;;;7390738;19;20966;-82
2022/07/12 07:01:30;;;;;;;7.00;4.80;;;21.20;99.90;;;;;;7386277;19;20320;-82
2022/07/12 07:03:55;;;;;;;4.32;3.17;;;21.20;99.90;;;;;;7387609;19;20315;-86
2022/07/12 07:06:21;;;;;;;5.07;2.90;;;21.20;99.90;;;;;;7386309;19;20331;-87
2022/07/12 07:08:46;;;;;;;3.33;2.43;;;21.50;99.90;;;;;;7386441;19;20670;-82
2022/07/12 07:11:12;;;;;;;3.30;2.00;;;21.60;99.90;;;;;;7383797;19;20332;-83
2022/07/12 07:13:38;;;;;;;1.80;1.70;;;21.80;99.90;;;;;;7390206;19;21211;-88
2022/07/12 07:16:03;;;;;;;2.23;1.80;;;21.90;99.90;;;;;;7390975;19;20680;-86
2022/07/12 07:18:29;;;;;;;2.42;1.70;;;21.90;99.90;;;;;;7389567;19;20296;-82
2022/07/12 07:20:55;;;;;;;1.67;1.52;;;22.00;99.90;;;;;;7391230;19;20305;-82
2022/07/12 07:23:20;;;;;;;2.80;1.60;;;22.10;99.90;;;;;;7389699;19;20316;-86
2022/07/12 07:25:46;;;;;;;1.60;1.40;;;22.00;99.90;;;;;;7389940;19;20300;-81
2022/07/12 07:28:12;;;;;;;1.70;1.33;;;22.20;99.90;;;;;;7392069;19;20351;-85
2022/07/12 07:30:52;;;;;;;1.70;1.20;;;22.20;99.90;;;;;;7391214;19;20353;-83
2022/07/12 07:33:22;;;;;;;2.88;1.40;;;22.30;99.90;;;;;;7394936;19;20327;-82
2022/07/12 07:35:48;;;;;;;2.42;1.38;;;22.60;99.90;;;;;;7386709;19;20353;-82
2022/07/12 07:38:15;;;;;;;1.23;1.13;;;22.50;99.90;;;;;;7377666;19;20319;-84
2022/07/12 07:40:43;;;;;;;2.15;1.20;;;22.70;99.90;;;;;;7374895;19;20355;-81
2022/07/12 07:43:10;;;;;;;2.20;1.25;;;22.80;99.90;;;;;;7397745;19;20313;-87
2022/07/12 07:45:36;;;;;;;1.10;1.00;;;23.00;99.90;;;;;;7392680;19;20320;-89
2022/07/12 07:48:01;;;;;;;0.85;0.85;;;23.00;99.90;;;;;;7371483;19;20719;-88
2022/07/12 07:50:29;;;;;;;1.90;1.30;;;23.20;99.90;;;;;;7389732;19;20353;-87
2022/07/12 07:52:58;;;;;;;1.80;1.10;;;23.10;99.90;;;;;;7386564;19;20338;-82
2022/07/12 07:55:29;;;;;;;0.93;0.82;;;23.40;99.90;;;;;;7401175;19;20361;-86
2022/07/12 07:57:59;;;;;;;1.07;0.90;;;23.50;99.90;;;;;;7360428;19;20318;-86
2022/07/12 08:00:25;;;;;;;0.90;0.90;;;23.40;99.90;;;;;;7395175;19;20305;-91
2022/07/12 08:02:57;;;;;;;0.90;0.88;;;23.60;98.90;;;;;;7401961;19;20404;-88
2022/07/12 08:05:23;;;;;;;1.60;0.80;;;23.80;97.30;;;;;;7392015;19;20383;-83
2022/07/12 08:07:49;;;;;;;0.80;0.80;;;23.80;97.50;;;;;;7389085;19;20301;-82
2022/07/12 08:10:14;;;;;;;0.68;0.68;;;23.70;96.50;;;;;;7381720;19;20324;-82
2022/07/12 08:12:40;;;;;;;0.70;0.70;;;23.90;95.30;;;;;;7388965;19;20944;-84
2022/07/12 08:15:06;;;;;;;0.70;0.70;;;24.10;95.30;;;;;;7384642;19;20325;-83
2022/07/12 08:17:32;;;;;;;0.73;0.73;;;24.30;95.10;;;;;;7383972;19;20376;-83
2022/07/12 08:19:58;;;;;;;1.42;0.80;;;24.40;96.10;;;;;;7384720;19;20304;-82
2022/07/12 08:22:23;;;;;;;0.80;0.80;;;24.50;94.10;;;;;;7383717;19;20376;-85
2022/07/12 08:24:49;;;;;;;3.00;1.00;;;24.70;95.00;;;;;;7384064;19;20409;-81
2022/07/12 08:27:15;;;;;;;0.70;0.70;;;24.40;94.40;;;;;;7381485;19;20312;-83
2022/07/12 08:29:41;;;;;;;2.42;1.10;;;24.60;94.20;;;;;;7382492;19;20317;-81
2022/07/12 08:32:07;;;;;;;0.85;0.85;;;24.50;93.30;;;;;;7380660;19;20297;-83
2022/07/12 08:34:34;;;;;;;1.00;0.70;;;24.70;92.30;;;;;;7382056;19;20313;-83
2022/07/12 08:37:00;;;;;;;1.70;0.80;;;25.00;93.90;;;;;;7366208;19;20347;-84
2022/07/12 08:39:25;;;;;;;0.80;0.80;;;25.20;93.20;;;;;;7379441;19;20759;-84
2022/07/12 08:41:51;;;;;;;0.87;0.70;;;25.20;92.90;;;;;;7382817;19;20309;-84
2022/07/12 08:44:16;;;;;;;0.70;0.70;;;25.50;92.30;;;;;;7384642;19;20312;-82
2022/07/12 08:46:42;;;;;;;2.10;0.98;;;25.40;92.50;;;;;;7386661;19;20880;-83
2022/07/12 08:49:08;;;;;;;0.70;0.70;;;25.20;90.10;;;;;;7393333;19;20337;-84
2022/07/12 08:51:34;;;;;;;0.60;0.60;;;25.60;91.80;;;;;;7388273;19;20325;-82
2022/07/12 08:54:13;;;;;;;0.85;0.80;;;25.50;89.20;;;;;;7387694;19;20889;-86
2022/07/12 08:56:42;;;;;;;1.02;0.80;;;25.80;89.90;;;;;;7399010;19;20312;-88
2022/07/12 08:59:14;;;;;;;1.03;0.93;;;25.80;89.70;;;;;;7392523;19;20329;-83
2022/07/12 09:01:45;;;;;;;0.65;0.65;;;26.00;90.20;;;;;;7390805;19;20308;-82
2022/07/12 09:04:18;;;;;;;0.67;0.67;;;26.30;88.60;;;;;;7403294;19;20340;-83
2022/07/12 09:06:44;;;;;;;1.60;0.90;;;26.00;89.00;;;;;;7398854;19;20305;-87
2022/07/12 09:09:25;;;;;;;0.80;0.80;;;25.90;86.60;;;;;;7391579;19;20309;-84
2022/07/12 09:11:54;;;;;;;0.75;0.75;;;26.30;87.20;;;;;;7397330;19;20321;-85
2022/07/12 09:14:23;;;;;;;0.75;0.75;;;26.40;85.00;;;;;;7377949;19;20324;-84
2022/07/12 09:17:03;;;;;;;1.73;0.80;;;26.50;86.60;;;;;;7290227;19;2004189;-87
2022/07/12 09:19:34;;;;;;;0.70;0.70;;;26.20;83.40;;;;;;7402089;19;20325;-87
2022/07/12 09:22:03;;;;;;;0.70;0.70;;;26.30;85.00;;;;;;7375160;19;20316;-83
2022/07/12 09:24:36;;;;;;;0.80;0.80;;;26.80;84.40;;;;;;7392856;19;20317;-82
2022/07/12 09:27:06;;;;;;;0.70;0.70;;;26.80;84.70;;;;;;7387873;19;20354;-81
2022/07/12 09:29:47;;;;;;;0.80;0.70;;;27.10;80.30;;;;;;7351996;19;20331;-83
2022/07/12 09:37:52;;;;;;;0.55;0.55;;;26.70;77.80;;;;;;7371018;19;20873;-81
2022/07/12 09:40:26;;;;;;;1.02;0.70;;;27.20;82.10;;;;;;7360772;19;20328;-82
2022/07/12 09:43:39;;;;;;;0.60;0.60;;;27.50;80.20;;;;;;7202604;19;2004139;-83
2022/07/12 09:46:09;;;;;;;0.70;0.70;;;27.60;78.90;;;;;;7215276;19;2004351;-77
2022/07/12 09:48:35;;;;;;;0.73;0.52;;;27.80;75.90;;;;;;7371852;19;20372;-78
2022/07/12 09:51:01;;;;;;;0.70;0.70;;;28.30;76.70;;;;;;7371006;19;20329;-77
2022/07/12 09:53:28;;;;;;;0.88;0.77;;;28.10;78.60;;;;;;7370491;19;20323;-77
2022/07/12 09:55:54;;;;;;;0.80;0.80;;;28.10;74.60;;;;;;7371614;19;20339;-78
2022/07/12 09:58:28;;;;;;;0.50;0.50;;;28.40;73.80;;;;;;7373249;19;20327;-77
2022/07/12 10:00:53;;;;;;;0.70;0.70;;;28.60;74.80;;;;;;7369189;19;20347;-78
2022/07/12 10:03:21;;;;;;;1.25;0.75;;;28.80;71.70;;;;;;7370266;19;20316;-78
2022/07/12 10:05:46;;;;;;;0.60;0.60;;;28.80;75.10;;;;;;7370568;19;20922;-78
2022/07/12 10:08:12;;;;;;;0.60;0.60;;;28.60;67.60;;;;;;7372108;19;20349;-77
2022/07/12 10:10:38;;;;;;;0.60;0.60;;;28.80;69.10;;;;;;7367948;19;20332;-77
2022/07/12 10:13:04;;;;;;;1.00;0.73;;;28.90;72.50;;;;;;7366994;19;20801;-77
2022/07/12 10:15:29;;;;;;;0.70;0.70;;;28.10;67.50;;;;;;7366082;19;20376;-78
2022/07/12 10:18:00;;;;;;;1.03;0.70;;;28.90;70.70;;;;;;7369031;19;20902;-78
2022/07/12 10:20:29;;;;;;;0.75;0.65;;;29.30;71.00;;;;;;7370775;19;20319;-78
2022/07/12 10:23:27;;;;;;;0.70;0.70;;;29.70;66.30;;;;;;7370054;19;20344;-78
2022/07/12 10:25:53;;;;;;;0.60;0.60;;;29.40;66.40;;;;;;7265623;19;2004379;-78
2022/07/12 10:28:18;;;;;;;0.63;0.63;;;29.90;67.10;;;;;;7366632;19;20983;-78
2022/07/12 10:30:45;;;;;;;1.17;0.75;;;30.30;63.00;;;;;;7367286;19;20347;-78
2022/07/12 10:33:19;;;;;;;0.80;0.52;;;30.20;65.90;;;;;;7357454;19;20341;-78
2022/07/12 10:36:23;;;;;;;0.70;0.70;;;30.30;61.10;;;;;;7332337;19;20352;-79
2022/07/12 10:39:28;;;;;;;0.80;0.80;;;30.60;65.00;;;;;;7094413;19;2004340;-78
2022/07/12 10:42:14;;;;;;;0.80;0.80;;;31.30;62.10;;;;;;7117410;19;2004356;-78
2022/07/12 10:44:47;;;;;;;2.10;1.10;;;31.30;59.60;;;;;;7368319;19;20344;-78
2022/07/12 10:47:14;;;;;;;1.73;1.13;;;31.10;60.60;;;;;;7367979;19;20413;-79
2022/07/12 10:49:49;;;;;;;1.35;0.90;;;31.30;58.40;;;;;;7368997;19;20851;-77
2022/07/12 10:52:17;;;;;;;0.70;0.70;;;31.30;62.40;;;;;;7366387;19;20312;-79
2022/07/12 10:54:54;;;;;;;1.48;0.70;;;30.30;57.60;;;;;;7353596;19;20333;-78
2022/07/12 10:57:43;;;;;;;1.30;0.80;;;31.00;60.90;;;;;;7363188;19;20333;-78
2022/07/12 11:00:09;;;;;;;1.00;0.70;;;31.50;57.80;;;;;;7262805;19;2004979;-79
2022/07/12 11:02:35;;;;;;;0.82;0.82;;;31.10;59.60;;;;;;7370681;19;20621;-79
2022/07/12 11:05:01;;;;;;;0.77;0.77;;;30.90;58.50;;;;;;7361051;19;20789;-78
2022/07/12 11:07:26;;;;;;;1.20;0.80;;;30.80;57.60;;;;;;7366982;19;20329;-78
2022/07/12 11:09:52;;;;;;;0.50;0.50;;;30.30;52.60;;;;;;7366268;19;20765;-78
2022/07/12 11:12:18;;;;;;;0.70;0.70;;;30.90;55.60;;;;;;7367686;19;20324;-79
2022/07/12 11:14:45;;;;;;;0.70;0.70;;;30.10;55.40;;;;;;7364093;19;20324;-78
2022/07/12 11:17:10;;;;;;;0.82;0.82;;;30.80;56.40;;;;;;7368100;19;20345;-79
2022/07/12 11:19:36;;;;;;;0.75;0.75;;;31.40;54.30;;;;;;7368733;19;20321;-79
2022/07/12 11:22:01;;;;;;;0.77;0.77;;;32.00;55.70;;;;;;7367892;19;20771;-78
2022/07/12 11:24:28;;;;;;;0.80;0.80;;;31.40;53.30;;;;;;7369897;19;20880;-78
2022/07/12 11:26:54;;;;;;;0.70;0.70;;;30.50;53.50;;;;;;7371599;19;20316;-78
2022/07/12 11:29:20;;;;;;;1.13;1.00;;;30.40;56.80;;;;;;7369184;19;20665;-79
2022/07/12 11:31:45;;;;;;;1.30;0.90;;;29.40;56.00;;;;;;7370768;19;20895;-78
2022/07/12 11:34:24;;;;;;;0.77;0.73;;;29.20;55.50;;;;;;7367063;19;20333;-78
2022/07/12 11:36:57;;;;;;;1.08;0.80;;;29.50;55.30;;;;;;7369264;19;20933;-78
2022/07/12 11:39:32;;;;;;;0.50;0.50;;;30.00;57.90;;;;;;7371143;19;20320;-78
2022/07/12 11:41:58;;;;;;;3.83;0.82;;;29.90;55.30;;;;;;7267563;19;2004237;-77
2022/07/12 11:44:46;;;;;;;0.70;0.70;;;29.90;56.00;;;;;;7367424;19;20695;-78
2022/07/12 11:47:12;;;;;;;1.00;0.70;;;30.60;55.90;;;;;;7266559;19;2004370;-78
2022/07/12 11:49:44;;;;;;;0.63;0.60;;;30.80;55.20;;;;;;7370024;19;20911;-80
2022/07/12 11:52:14;;;;;;;0.70;0.70;;;31.60;54.40;;;;;;7366880;19;20968;-78
2022/07/12 11:54:39;;;;;;;0.50;0.50;;;31.80;53.20;;;;;;7372686;19;20319;-80
2022/07/12 11:57:09;;;;;;;0.40;0.40;;;31.90;52.90;;;;;;7372655;19;20329;-80
2022/07/12 11:59:34;;;;;;;0.68;0.68;;;31.40;53.40;;;;;;7371274;19;20332;-78
2022/07/12 12:02:03;;;;;;;1.90;0.90;;;30.70;52.70;;;;;;7367684;19;20338;-78
2022/07/12 12:04:29;;;;;;;0.80;0.80;;;29.60;52.60;;;;;;7366112;19;20309;-78
2022/07/12 12:06:55;;;;;;;0.73;0.73;;;29.20;53.10;;;;;;7368672;19;20957;-79
2022/07/12 12:09:20;;;;;;;0.70;0.70;;;29.60;55.80;;;;;;7370523;19;20297;-79
2022/07/12 12:11:46;;;;;;;1.10;1.00;;;30.40;55.40;;;;;;7364729;19;20297;-80
2022/07/12 12:14:12;;;;;;;0.70;0.70;;;31.10;54.40;;;;;;7366635;19;20709;-78
2022/07/12 12:16:38;;;;;;;2.20;1.25;;;30.90;52.00;;;;;;7364634;19;20924;-79
2022/07/12 12:19:03;;;;;;;1.60;0.90;;;30.20;51.80;;;;;;7369843;19;20333;-79
2022/07/12 12:21:29;;;;;;;1.17;0.90;;;30.10;51.30;;;;;;7364667;19;20431;-78
2022/07/12 12:24:08;;;;;;;0.80;0.80;;;30.00;54.80;;;;;;7362417;19;20341;-78
2022/07/12 12:26:34;;;;;;;1.05;0.80;;;30.80;57.40;;;;;;7262414;19;2005880;-78
2022/07/12 12:29:02;;;;;;;0.95;0.80;;;31.00;52.70;;;;;;7367577;19;20329;-77
2022/07/12 12:31:27;;;;;;;0.68;0.68;;;30.90;53.80;;;;;;7370515;19;20336;-77
2022/07/12 12:33:56;;;;;;;0.90;0.80;;;31.20;52.60;;;;;;7371025;19;20662;-78
2022/07/12 12:36:29;;;;;;;1.20;0.70;;;31.40;50.60;;;;;;7372934;19;20320;-78
2022/07/12 12:38:59;;;;;;;0.63;0.63;;;32.20;53.40;;;;;;7373767;19;20316;-78
2022/07/12 12:41:26;;;;;;;0.70;0.70;;;32.70;52.00;;;;;;7371518;19;20334;-78
2022/07/12 12:44:01;;;;;;;0.63;0.63;;;32.40;51.50;;;;;;7371946;19;20345;-78
2022/07/12 12:46:55;;;;;;;0.80;0.80;;;31.20;51.60;;;;;;7266331;19;2004236;-78
2022/07/12 12:49:43;;;;;;;0.63;0.63;;;31.40;53.30;;;;;;7372248;19;20888;-78
2022/07/12 12:52:09;;;;;;;0.70;0.70;;;32.40;50.90;;;;;;7268962;19;2004769;-78
2022/07/12 12:54:36;;;;;;;0.93;0.80;;;33.20;52.20;;;;;;7371527;19;20366;-79
2022/07/12 12:57:05;;;;;;;0.90;0.90;;;33.10;50.90;;;;;;7372111;19;21592;-78